Liscombe, United Kingdom
Current Conditions -  °F | °C
As of 11:50 AM on Sunday 21 Dec 2014 (Local Time) from EGDX Reporting Station
Drizzle Drizzle  
Wind Chill: 10°   Ceiling: 600
Heat Index: 10°   Visibility: 6mi
Dew Point:   Wind: 20mph
Humidity: 94%   Direction: 250°WSW
Pressure: 30.33"   Gusts: NA
Location:  51.08°N, 3.6°W
Report Text: EGDX 211150Z AUTO 25017KT 9999 -DZ BKN006/// SCT034/// 10/09 Q1027
Loading
Personal Weather Stations






























Interactive Weather Map New forecast layout! Learn more

10-Day Weather Forecast

Advertisements
Track Severe Weather on mobile